sensor_id;sensor_type;location;lat;lon;timestamp;temperature;humidity
2977;DHT22;1498;51.500;7.440;2023-02-15T00:01:33;6.40;99.90
2977;DHT22;1498;51.500;7.440;2023-02-15T00:03:59;6.40;99.90
2977;DHT22;1498;51.500;7.440;2023-02-15T00:06:24;6.30;99.90
2977;DHT22;1498;51.500;7.440;2023-02-15T00:08:50;6.30;99.90
2977;DHT22;1498;51.500;7.440;2023-02-15T00:11:17;6.30;99.90
2977;DHT22;1498;51.500;7.440;2023-02-15T00:14:14;6.30;99.90
2977;DHT22;1498;51.500;7.440;2023-02-15T00:16:41;6.30;99.90
2977;DHT22;1498;51.500;7.440;2023-02-15T00:19:08;6.30;99.90
2977;DHT22;1498;51.500;7.440;2023-02-15T00:21:36;6.20;99.90
2977;DHT22;1498;51.500;7.440;2023-02-15T00:24:03;6.10;99.90
2977;DHT22;1498;51.500;7.440;2023-02-15T00:26:29;6.30;99.90
2977;DHT22;1498;51.500;7.440;2023-02-15T00:28:55;6.50;99.90
2977;DHT22;1498;51.500;7.440;2023-02-15T00:31:22;6.40;99.90
2977;DHT22;1498;51.500;7.440;2023-02-15T00:33:47;6.30;99.90
2977;DHT22;1498;51.500;7.440;2023-02-15T00:36:13;6.20;99.90
2977;DHT22;1498;51.500;7.440;2023-02-15T00:38:39;6.20;99.90
2977;DHT22;1498;51.500;7.440;2023-02-15T00:41:06;6.10;99.90
2977;DHT22;1498;51.500;7.440;2023-02-15T00:43:33;6.20;99.90
2977;DHT22;1498;51.500;7.440;2023-02-15T00:45:58;6.10;99.90
2977;DHT22;1498;51.500;7.440;2023-02-15T00:48:25;6.10;99.90
2977;DHT22;1498;51.500;7.440;2023-02-15T00:50:58;6.00;99.90
2977;DHT22;1498;51.500;7.440;2023-02-15T00:53:25;6.00;99.90
2977;DHT22;1498;51.500;7.440;2023-02-15T00:55:51;5.90;99.90
2977;DHT22;1498;51.500;7.440;2023-02-15T00:58:17;5.90;99.90
2977;DHT22;1498;51.500;7.440;2023-02-15T01:00:45;5.80;99.90
2977;DHT22;1498;51.500;7.440;2023-02-15T01:03:12;5.80;99.90
2977;DHT22;1498;51.500;7.440;2023-02-15T01:05:38;5.90;99.90
2977;DHT22;1498;51.500;7.440;2023-02-15T01:08:04;5.90;99.90
2977;DHT22;1498;51.500;7.440;2023-02-15T01:10:30;5.90;99.90
2977;DHT22;1498;51.500;7.440;2023-02-15T01:12:56;5.90;99.90
2977;DHT22;1498;51.500;7.440;2023-02-15T01:15:23;5.90;99.90
2977;DHT22;1498;51.500;7.440;2023-02-15T01:17:49;5.90;99.90
2977;DHT22;1498;51.500;7.440;2023-02-15T01:22:44;5.80;99.90
2977;DHT22;1498;51.500;7.440;2023-02-15T01:25:10;5.80;99.90
2977;DHT22;1498;51.500;7.440;2023-02-15T01:27:35;5.80;99.90
2977;DHT22;1498;51.500;7.440;2023-02-15T01:30:01;5.90;99.90
2977;DHT22;1498;51.500;7.440;2023-02-15T01:32:26;5.80;99.90
2977;DHT22;1498;51.500;7.440;2023-02-15T01:34:52;5.80;99.90
2977;DHT22;1498;51.500;7.440;2023-02-15T01:37:18;5.80;99.90
2977;DHT22;1498;51.500;7.440;2023-02-15T01:39:43;5.70;99.90
2977;DHT22;1498;51.500;7.440;2023-02-15T01:42:10;5.70;99.90
2977;DHT22;1498;51.500;7.440;2023-02-15T01:44:54;5.60;99.90
2977;DHT22;1498;51.500;7.440;2023-02-15T01:52:45;5.60;99.90
2977;DHT22;1498;51.500;7.440;2023-02-15T01:55:13;5.60;99.90
2977;DHT22;1498;51.500;7.440;2023-02-15T01:57:40;5.70;99.90
2977;DHT22;1498;51.500;7.440;2023-02-15T02:00:06;5.80;99.90
2977;DHT22;1498;51.500;7.440;2023-02-15T02:02:33;5.70;99.90
2977;DHT22;1498;51.500;7.440;2023-02-15T02:05:01;5.80;99.90
2977;DHT22;1498;51.500;7.440;2023-02-15T02:07:34;5.70;99.90
2977;DHT22;1498;51.500;7.440;2023-02-15T02:10:01;5.60;99.90
2977;DHT22;1498;51.500;7.440;2023-02-15T02:12:26;5.60;99.90
2977;DHT22;1498;51.500;7.440;2023-02-15T02:14:52;5.60;99.90
2977;DHT22;1498;51.500;7.440;2023-02-15T02:17:37;5.60;99.90
2977;DHT22;1498;51.500;7.440;2023-02-15T02:20:35;5.50;99.90
2977;DHT22;1498;51.500;7.440;2023-02-15T02:29:08;5.40;99.90
2977;DHT22;1498;51.500;7.440;2023-02-15T02:32:04;5.50;99.90
2977;DHT22;1498;51.500;7.440;2023-02-15T02:40:25;5.30;99.90
2977;DHT22;1498;51.500;7.440;2023-02-15T02:43:08;5.30;99.90
2977;DHT22;1498;51.500;7.440;2023-02-15T02:45:43;5.40;99.90
2977;DHT22;1498;51.500;7.440;2023-02-15T02:48:15;5.40;99.90
2977;DHT22;1498;51.500;7.440;2023-02-15T02:50:42;5.30;99.90
2977;DHT22;1498;51.500;7.440;2023-02-15T02:53:09;5.30;99.90
2977;DHT22;1498;51.500;7.440;2023-02-15T02:55:49;5.40;99.90
2977;DHT22;1498;51.500;7.440;2023-02-15T03:00:56;5.60;99.90
2977;DHT22;1498;51.500;7.440;2023-02-15T03:03:47;5.60;99.90
2977;DHT22;1498;51.500;7.440;2023-02-15T03:06:37;5.50;99.90
2977;DHT22;1498;51.500;7.440;2023-02-15T03:09:12;5.50;99.90
2977;DHT22;1498;51.500;7.440;2023-02-15T03:11:47;5.30;99.90
2977;DHT22;1498;51.500;7.440;2023-02-15T03:14:14;5.20;99.90
2977;DHT22;1498;51.500;7.440;2023-02-15T03:16:43;5.10;99.90
2977;DHT22;1498;51.500;7.440;2023-02-15T03:19:15;5.10;99.90
2977;DHT22;1498;51.500;7.440;2023-02-15T03:21:49;5.00;99.90
2977;DHT22;1498;51.500;7.440;2023-02-15T03:24:25;5.00;99.90
2977;DHT22;1498;51.500;7.440;2023-02-15T03:26:53;5.00;99.90
2977;DHT22;1498;51.500;7.440;2023-02-15T03:29:22;4.90;99.90
2977;DHT22;1498;51.500;7.440;2023-02-15T03:31:56;5.00;99.90
2977;DHT22;1498;51.500;7.440;2023-02-15T03:34:25;5.00;99.90
2977;DHT22;1498;51.500;7.440;2023-02-15T03:36:57;5.00;99.90
2977;DHT22;1498;51.500;7.440;2023-02-15T05:31:05;4.40;99.90
2977;DHT22;1498;51.500;7.440;2023-02-15T05:33:31;4.40;99.90
2977;DHT22;1498;51.500;7.440;2023-02-15T05:35:57;4.40;99.90
2977;DHT22;1498;51.500;7.440;2023-02-15T05:38:23;4.40;99.90
2977;DHT22;1498;51.500;7.440;2023-02-15T05:40:49;4.50;99.90
2977;DHT22;1498;51.500;7.440;2023-02-15T05:43:15;4.50;99.90
2977;DHT22;1498;51.500;7.440;2023-02-15T05:45:47;4.50;99.90
2977;DHT22;1498;51.500;7.440;2023-02-15T05:48:12;4.60;99.90
2977;DHT22;1498;51.500;7.440;2023-02-15T05:50:38;4.60;99.90
2977;DHT22;1498;51.500;7.440;2023-02-15T05:53:04;4.50;99.90
2977;DHT22;1498;51.500;7.440;2023-02-15T05:55:29;4.60;99.90
2977;DHT22;1498;51.500;7.440;2023-02-15T05:57:55;4.60;99.90
2977;DHT22;1498;51.500;7.440;2023-02-15T06:00:20;4.60;99.90
2977;DHT22;1498;51.500;7.440;2023-02-15T06:02:46;4.80;99.90
2977;DHT22;1498;51.500;7.440;2023-02-15T06:05:11;4.80;99.90
2977;DHT22;1498;51.500;7.440;2023-02-15T06:07:37;4.70;99.90
2977;DHT22;1498;51.500;7.440;2023-02-15T06:10:04;4.70;99.90
2977;DHT22;1498;51.500;7.440;2023-02-15T06:12:30;4.60;99.90
2977;DHT22;1498;51.500;7.440;2023-02-15T06:15:05;4.60;99.90
2977;DHT22;1498;51.500;7.440;2023-02-15T06:17:30;4.60;99.90
2977;DHT22;1498;51.500;7.440;2023-02-15T06:19:56;4.60;99.90
2977;DHT22;1498;51.500;7.440;2023-02-15T06:22:22;4.60;99.90
2977;DHT22;1498;51.500;7.440;2023-02-15T06:24:48;4.70;99.90
2977;DHT22;1498;51.500;7.440;2023-02-15T06:27:13;4.60;99.90
2977;DHT22;1498;51.500;7.440;2023-02-15T06:29:39;4.60;99.90
2977;DHT22;1498;51.500;7.440;2023-02-15T06:32:05;4.60;99.90
2977;DHT22;1498;51.500;7.440;2023-02-15T06:34:30;4.60;99.90
2977;DHT22;1498;51.500;7.440;2023-02-15T06:36:56;4.70;99.90
2977;DHT22;1498;51.500;7.440;2023-02-15T06:39:22;4.80;99.90
2977;DHT22;1498;51.500;7.440;2023-02-15T06:41:47;4.80;99.90
2977;DHT22;1498;51.500;7.440;2023-02-15T06:44:13;4.60;99.90
2977;DHT22;1498;51.500;7.440;2023-02-15T06:46:39;4.60;99.90
2977;DHT22;1498;51.500;7.440;2023-02-15T06:49:04;4.50;99.90
2977;DHT22;1498;51.500;7.440;2023-02-15T06:51:30;4.40;99.90
2977;DHT22;1498;51.500;7.440;2023-02-15T06:53:55;4.40;99.90
2977;DHT22;1498;51.500;7.440;2023-02-15T06:56:21;4.50;99.90
2977;DHT22;1498;51.500;7.440;2023-02-15T06:58:46;4.50;99.90
2977;DHT22;1498;51.500;7.440;2023-02-15T07:01:14;4.60;99.90
2977;DHT22;1498;51.500;7.440;2023-02-15T07:03:40;4.60;99.90
2977;DHT22;1498;51.500;7.440;2023-02-15T07:06:06;4.60;99.90
2977;DHT22;1498;51.500;7.440;2023-02-15T07:08:34;4.70;99.90
2977;DHT22;1498;51.500;7.440;2023-02-15T07:11:00;4.80;99.90
2977;DHT22;1498;51.500;7.440;2023-02-15T07:13:45;4.90;99.90
2977;DHT22;1498;51.500;7.440;2023-02-15T07:16:11;4.80;99.90
2977;DHT22;1498;51.500;7.440;2023-02-15T07:18:38;4.70;99.90
2977;DHT22;1498;51.500;7.440;2023-02-15T07:21:04;4.60;99.90
2977;DHT22;1498;51.500;7.440;2023-02-15T07:23:29;4.50;99.90
2977;DHT22;1498;51.500;7.440;2023-02-15T07:25:59;4.50;99.90
2977;DHT22;1498;51.500;7.440;2023-02-15T07:28:25;4.50;99.90
2977;DHT22;1498;51.500;7.440;2023-02-15T07:30:51;4.60;99.90
2977;DHT22;1498;51.500;7.440;2023-02-15T07:33:17;4.60;99.90
2977;DHT22;1498;51.500;7.440;2023-02-15T07:35:58;4.60;99.90
2977;DHT22;1498;51.500;7.440;2023-02-15T07:38:25;4.70;99.90
2977;DHT22;1498;51.500;7.440;2023-02-15T07:41:11;4.80;99.90
2977;DHT22;1498;51.500;7.440;2023-02-15T07:43:55;4.90;99.90
2977;DHT22;1498;51.500;7.440;2023-02-15T07:46:21;5.00;99.90
2977;DHT22;1498;51.500;7.440;2023-02-15T07:48:47;5.10;99.90
2977;DHT22;1498;51.500;7.440;2023-02-15T07:51:14;5.20;99.90
2977;DHT22;1498;51.500;7.440;2023-02-15T07:53:40;5.40;99.90
2977;DHT22;1498;51.500;7.440;2023-02-15T07:56:09;5.50;99.90
2977;DHT22;1498;51.500;7.440;2023-02-15T07:58:35;5.80;99.90
2977;DHT22;1498;51.500;7.440;2023-02-15T08:01:17;6.00;99.90
2977;DHT22;1498;51.500;7.440;2023-02-15T08:03:43;6.30;99.90
2977;DHT22;1498;51.500;7.440;2023-02-15T08:06:09;6.50;99.90
2977;DHT22;1498;51.500;7.440;2023-02-15T08:08:37;6.70;99.90
2977;DHT22;1498;51.500;7.440;2023-02-15T08:14:15;7.00;99.90
2977;DHT22;1498;51.500;7.440;2023-02-15T08:21:39;7.70;99.90
2977;DHT22;1498;51.500;7.440;2023-02-15T08:24:20;8.10;99.90
2977;DHT22;1498;51.500;7.440;2023-02-15T08:26:46;8.40;99.90
2977;DHT22;1498;51.500;7.440;2023-02-15T08:29:14;8.70;99.90
2977;DHT22;1498;51.500;7.440;2023-02-15T08:31:40;8.90;99.90
2977;DHT22;1498;51.500;7.440;2023-02-15T08:34:11;9.10;99.90
2977;DHT22;1498;51.500;7.440;2023-02-15T08:36:38;9.30;99.90
2977;DHT22;1498;51.500;7.440;2023-02-15T08:39:05;9.50;99.90
2977;DHT22;1498;51.500;7.440;2023-02-15T08:41:34;9.70;99.90
2977;DHT22;1498;51.500;7.440;2023-02-15T08:44:03;9.90;99.90
2977;DHT22;1498;51.500;7.440;2023-02-15T08:46:31;10.00;99.90
2977;DHT22;1498;51.500;7.440;2023-02-15T08:48:58;10.10;99.90
2977;DHT22;1498;51.500;7.440;2023-02-15T08:51:26;10.20;99.90
2977;DHT22;1498;51.500;7.440;2023-02-15T08:53:54;10.30;99.90
2977;DHT22;1498;51.500;7.440;2023-02-15T08:56:25;10.30;99.90
2977;DHT22;1498;51.500;7.440;2023-02-15T08:58:52;10.40;99.90
2977;DHT22;1498;51.500;7.440;2023-02-15T09:01:23;10.30;99.90
2977;DHT22;1498;51.500;7.440;2023-02-15T09:03:55;10.40;99.90
2977;DHT22;1498;51.500;7.440;2023-02-15T09:06:22;10.40;99.90
2977;DHT22;1498;51.500;7.440;2023-02-15T09:08:49;10.50;99.90
2977;DHT22;1498;51.500;7.440;2023-02-15T09:11:17;10.50;99.90
2977;DHT22;1498;51.500;7.440;2023-02-15T09:13:58;10.60;99.90
2977;DHT22;1498;51.500;7.440;2023-02-15T09:16:26;10.70;99.90
2977;DHT22;1498;51.500;7.440;2023-02-15T09:18:52;10.80;99.90
2977;DHT22;1498;51.500;7.440;2023-02-15T09:21:20;10.80;99.90
2977;DHT22;1498;51.500;7.440;2023-02-15T09:23:49;10.80;99.90
2977;DHT22;1498;51.500;7.440;2023-02-15T09:26:18;10.90;99.90
2977;DHT22;1498;51.500;7.440;2023-02-15T09:28:44;11.00;99.90
2977;DHT22;1498;51.500;7.440;2023-02-15T09:33:39;11.20;99.90
2977;DHT22;1498;51.500;7.440;2023-02-15T09:36:12;11.30;99.90
2977;DHT22;1498;51.500;7.440;2023-02-15T09:38:38;11.30;99.90
2977;DHT22;1498;51.500;7.440;2023-02-15T09:48:06;11.40;99.90
2977;DHT22;1498;51.500;7.440;2023-02-15T09:56:42;11.50;99.90
2977;DHT22;1498;51.500;7.440;2023-02-15T10:02:23;11.80;99.90
2977;DHT22;1498;51.500;7.440;2023-02-15T10:05:20;12.00;99.90
2977;DHT22;1498;51.500;7.440;2023-02-15T10:10:18;12.00;99.90
2977;DHT22;1498;51.500;7.440;2023-02-15T10:19:00;12.40;99.90
2977;DHT22;1498;51.500;7.440;2023-02-15T10:21:41;12.30;99.90
2977;DHT22;1498;51.500;7.440;2023-02-15T10:26:58;12.50;99.90
2977;DHT22;1498;51.500;7.440;2023-02-15T10:29:35;12.50;99.90
2977;DHT22;1498;51.500;7.440;2023-02-15T10:32:29;12.50;99.70
2977;DHT22;1498;51.500;7.440;2023-02-15T10:35:37;12.60;99.90
2977;DHT22;1498;51.500;7.440;2023-02-15T10:38:07;12.60;99.90
2977;DHT22;1498;51.500;7.440;2023-02-15T10:40:55;12.70;99.90
2977;DHT22;1498;51.500;7.440;2023-02-15T10:49:08;12.90;99.90
2977;DHT22;1498;51.500;7.440;2023-02-15T10:52:09;13.00;99.90
2977;DHT22;1498;51.500;7.440;2023-02-15T11:00:24;13.40;99.40
2977;DHT22;1498;51.500;7.440;2023-02-15T11:03:27;13.50;98.60
2977;DHT22;1498;51.500;7.440;2023-02-15T11:06:06;13.60;98.80
2977;DHT22;1498;51.500;7.440;2023-02-15T11:08:40;13.80;97.60
2977;DHT22;1498;51.500;7.440;2023-02-15T11:11:15;13.60;96.50
2977;DHT22;1498;51.500;7.440;2023-02-15T11:13:45;13.60;96.20
2977;DHT22;1498;51.500;7.440;2023-02-15T11:16:29;13.70;95.90
2977;DHT22;1498;51.500;7.440;2023-02-15T11:19:06;13.80;96.00
2977;DHT22;1498;51.500;7.440;2023-02-15T11:21:38;14.00;95.00
2977;DHT22;1498;51.500;7.440;2023-02-15T11:24:14;14.10;94.10
2977;DHT22;1498;51.500;7.440;2023-02-15T11:26:45;14.20;93.60
2977;DHT22;1498;51.500;7.440;2023-02-15T11:29:23;14.20;94.00
2977;DHT22;1498;51.500;7.440;2023-02-15T11:32:17;14.20;94.00
2977;DHT22;1498;51.500;7.440;2023-02-15T11:37:41;14.50;93.40
2977;DHT22;1498;51.500;7.440;2023-02-15T11:40:33;14.50;96.80
2977;DHT22;1498;51.500;7.440;2023-02-15T11:43:07;14.70;94.20
2977;DHT22;1498;51.500;7.440;2023-02-15T11:45:36;14.90;90.10
2977;DHT22;1498;51.500;7.440;2023-02-15T11:48:11;14.90;87.00
2977;DHT22;1498;51.500;7.440;2023-02-15T11:50:38;15.10;86.50
2977;DHT22;1498;51.500;7.440;2023-02-15T11:53:10;15.30;86.70
2977;DHT22;1498;51.500;7.440;2023-02-15T11:55:37;15.40;86.90
2977;DHT22;1498;51.500;7.440;2023-02-15T12:00:37;15.50;84.40
2977;DHT22;1498;51.500;7.440;2023-02-15T12:03:56;15.70;83.70
2977;DHT22;1498;51.500;7.440;2023-02-15T12:06:03;15.80;80.50
2977;DHT22;1498;51.500;7.440;2023-02-15T12:08:42;16.10;78.80
2977;DHT22;1498;51.500;7.440;2023-02-15T12:11:14;16.50;75.00
2977;DHT22;1498;51.500;7.440;2023-02-15T12:13:58;16.70;73.00
2977;DHT22;1498;51.500;7.440;2023-02-15T12:16:25;17.00;70.30
2977;DHT22;1498;51.500;7.440;2023-02-15T12:18:54;17.10;66.60
2977;DHT22;1498;51.500;7.440;2023-02-15T12:23:54;17.10;65.30
2977;DHT22;1498;51.500;7.440;2023-02-15T12:26:34;17.10;64.10
2977;DHT22;1498;51.500;7.440;2023-02-15T12:29:16;17.10;63.30
2977;DHT22;1498;51.500;7.440;2023-02-15T12:31:47;17.00;63.40
2977;DHT22;1498;51.500;7.440;2023-02-15T12:34:33;16.90;63.00
2977;DHT22;1498;51.500;7.440;2023-02-15T12:37:11;16.90;62.30
2977;DHT22;1498;51.500;7.440;2023-02-15T12:39:55;16.90;62.90
2977;DHT22;1498;51.500;7.440;2023-02-15T12:42:21;16.90;62.10
2977;DHT22;1498;51.500;7.440;2023-02-15T12:45:03;16.70;61.10
2977;DHT22;1498;51.500;7.440;2023-02-15T12:47:30;16.70;62.30
2977;DHT22;1498;51.500;7.440;2023-02-15T12:50:07;16.70;62.30
2977;DHT22;1498;51.500;7.440;2023-02-15T12:52:36;16.60;62.90
2977;DHT22;1498;51.500;7.440;2023-02-15T12:55:26;16.50;63.50
2977;DHT22;1498;51.500;7.440;2023-02-15T12:58:17;16.50;62.30
2977;DHT22;1498;51.500;7.440;2023-02-15T13:00:44;16.60;62.60
2977;DHT22;1498;51.500;7.440;2023-02-15T13:03:21;16.70;62.00
2977;DHT22;1498;51.500;7.440;2023-02-15T13:05:54;16.50;62.90
2977;DHT22;1498;51.500;7.440;2023-02-15T13:08:21;16.60;62.20
2977;DHT22;1498;51.500;7.440;2023-02-15T13:10:59;16.50;61.40
2977;DHT22;1498;51.500;7.440;2023-02-15T13:13:34;16.50;62.00
2977;DHT22;1498;51.500;7.440;2023-02-15T13:16:12;16.50;61.60
2977;DHT22;1498;51.500;7.440;2023-02-15T13:18:45;16.60;63.00
2977;DHT22;1498;51.500;7.440;2023-02-15T13:21:17;16.80;61.40
2977;DHT22;1498;51.500;7.440;2023-02-15T13:23:53;16.80;60.10
2977;DHT22;1498;51.500;7.440;2023-02-15T13:26:23;16.70;60.50
2977;DHT22;1498;51.500;7.440;2023-02-15T13:28:58;16.60;59.90
2977;DHT22;1498;51.500;7.440;2023-02-15T13:31:28;16.40;60.90
2977;DHT22;1498;51.500;7.440;2023-02-15T13:34:01;16.50;62.40
2977;DHT22;1498;51.500;7.440;2023-02-15T13:36:34;16.60;60.80
2977;DHT22;1498;51.500;7.440;2023-02-15T13:39:38;16.70;60.30
2977;DHT22;1498;51.500;7.440;2023-02-15T13:45:25;16.90;60.00
2977;DHT22;1498;51.500;7.440;2023-02-15T13:48:00;16.90;59.40
2977;DHT22;1498;51.500;7.440;2023-02-15T14:02:28;16.90;61.20
2977;DHT22;1498;51.500;7.440;2023-02-15T14:04:55;17.00;62.90
2977;DHT22;1498;51.500;7.440;2023-02-15T14:10:21;17.00;59.60
2977;DHT22;1498;51.500;7.440;2023-02-15T14:13:04;17.00;60.70
2977;DHT22;1498;51.500;7.440;2023-02-15T14:15:56;16.90;60.00
2977;DHT22;1498;51.500;7.440;2023-02-15T14:21:15;16.90;59.60
2977;DHT22;1498;51.500;7.440;2023-02-15T14:29:49;16.50;59.70
2977;DHT22;1498;51.500;7.440;2023-02-15T14:32:25;16.50;60.20
2977;DHT22;1498;51.500;7.440;2023-02-15T14:34:57;16.50;60.90
2977;DHT22;1498;51.500;7.440;2023-02-15T14:37:42;16.40;60.80
2977;DHT22;1498;51.500;7.440;2023-02-15T14:40:49;16.30;61.50
2977;DHT22;1498;51.500;7.440;2023-02-15T14:46:30;16.30;61.50
2977;DHT22;1498;51.500;7.440;2023-02-15T14:49:03;16.30;61.60
2977;DHT22;1498;51.500;7.440;2023-02-15T14:54:10;16.20;60.90
2977;DHT22;1498;51.500;7.440;2023-02-15T14:56:36;16.10;60.10
2977;DHT22;1498;51.500;7.440;2023-02-15T15:01:38;16.10;61.80
2977;DHT22;1498;51.500;7.440;2023-02-15T15:04:07;16.10;62.70
2977;DHT22;1498;51.500;7.440;2023-02-15T15:06:36;16.00;62.80
2977;DHT22;1498;51.500;7.440;2023-02-15T15:11:48;15.90;62.90
2977;DHT22;1498;51.500;7.440;2023-02-15T15:17:03;15.90;63.60
2977;DHT22;1498;51.500;7.440;2023-02-15T15:22:22;15.70;65.50
2977;DHT22;1498;51.500;7.440;2023-02-15T15:24:53;15.70;64.80
2977;DHT22;1498;51.500;7.440;2023-02-15T15:35:27;15.40;72.20
2977;DHT22;1498;51.500;7.440;2023-02-15T15:49:21;15.30;74.00
2977;DHT22;1498;51.500;7.440;2023-02-15T15:51:49;15.20;73.70
2977;DHT22;1498;51.500;7.440;2023-02-15T15:54:21;15.20;77.40
2977;DHT22;1498;51.500;7.440;2023-02-15T15:56:51;15.00;73.70
2977;DHT22;1498;51.500;7.440;2023-02-15T15:59:27;15.00;87.70
2977;DHT22;1498;51.500;7.440;2023-02-15T16:01:53;15.00;79.00
2977;DHT22;1498;51.500;7.440;2023-02-15T16:04:31;15.00;94.20
2977;DHT22;1498;51.500;7.440;2023-02-15T16:06:58;15.00;86.40
2977;DHT22;1498;51.500;7.440;2023-02-15T16:09:26;14.90;82.70
2977;DHT22;1498;51.500;7.440;2023-02-15T16:12:01;14.80;85.20
2977;DHT22;1498;51.500;7.440;2023-02-15T16:14:34;14.70;84.30
2977;DHT22;1498;51.500;7.440;2023-02-15T16:17:02;14.50;86.60
2977;DHT22;1498;51.500;7.440;2023-02-15T16:19:39;14.40;85.30
2977;DHT22;1498;51.500;7.440;2023-02-15T16:22:11;14.40;84.70
2977;DHT22;1498;51.500;7.440;2023-02-15T16:27:31;14.20;88.60
2977;DHT22;1498;51.500;7.440;2023-02-15T16:29:58;14.00;88.20
2977;DHT22;1498;51.500;7.440;2023-02-15T16:32:24;13.90;90.20
2977;DHT22;1498;51.500;7.440;2023-02-15T16:34:58;13.90;89.30
2977;DHT22;1498;51.500;7.440;2023-02-15T16:37:32;13.80;89.20
2977;DHT22;1498;51.500;7.440;2023-02-15T16:39:57;13.70;90.60
2977;DHT22;1498;51.500;7.440;2023-02-15T16:42:24;13.60;91.20
2977;DHT22;1498;51.500;7.440;2023-02-15T16:45:13;13.50;91.10
2977;DHT22;1498;51.500;7.440;2023-02-15T16:47:47;13.40;91.60
2977;DHT22;1498;51.500;7.440;2023-02-15T16:50:36;13.30;93.10
2977;DHT22;1498;51.500;7.440;2023-02-15T16:53:03;13.20;93.60
2977;DHT22;1498;51.500;7.440;2023-02-15T16:55:35;13.10;93.70
2977;DHT22;1498;51.500;7.440;2023-02-15T16:58:04;13.00;93.60
2977;DHT22;1498;51.500;7.440;2023-02-15T17:00:34;12.90;93.90
2977;DHT22;1498;51.500;7.440;2023-02-15T17:03:05;12.80;94.10
2977;DHT22;1498;51.500;7.440;2023-02-15T17:05:40;12.70;93.80
2977;DHT22;1498;51.500;7.440;2023-02-15T17:08:17;12.70;94.10
2977;DHT22;1498;51.500;7.440;2023-02-15T17:13:24;12.60;94.50
2977;DHT22;1498;51.500;7.440;2023-02-15T17:18:27;12.50;95.30
2977;DHT22;1498;51.500;7.440;2023-02-15T17:20:58;12.40;96.50
2977;DHT22;1498;51.500;7.440;2023-02-15T17:25:57;12.40;96.10
2977;DHT22;1498;51.500;7.440;2023-02-15T17:28:25;12.40;99.60
2977;DHT22;1498;51.500;7.440;2023-02-15T17:30:53;12.40;98.80
2977;DHT22;1498;51.500;7.440;2023-02-15T17:33:26;12.30;99.70
2977;DHT22;1498;51.500;7.440;2023-02-15T17:36:04;12.20;99.90
2977;DHT22;1498;51.500;7.440;2023-02-15T17:38:35;12.10;99.90
2977;DHT22;1498;51.500;7.440;2023-02-15T17:41:00;12.00;99.90
2977;DHT22;1498;51.500;7.440;2023-02-15T17:43:26;11.90;99.90
2977;DHT22;1498;51.500;7.440;2023-02-15T17:45:52;11.90;99.90
2977;DHT22;1498;51.500;7.440;2023-02-15T17:48:33;11.80;99.90
2977;DHT22;1498;51.500;7.440;2023-02-15T17:51:00;11.70;99.90
2977;DHT22;1498;51.500;7.440;2023-02-15T17:53:26;11.60;99.90
2977;DHT22;1498;51.500;7.440;2023-02-15T17:55:52;11.60;99.90
2977;DHT22;1498;51.500;7.440;2023-02-15T17:58:18;11.50;99.90
2977;DHT22;1498;51.500;7.440;2023-02-15T18:00:56;11.50;99.90
2977;DHT22;1498;51.500;7.440;2023-02-15T18:03:51;11.50;99.90
2977;DHT22;1498;51.500;7.440;2023-02-15T18:06:38;11.40;99.90
2977;DHT22;1498;51.500;7.440;2023-02-15T18:09:23;11.40;99.90
2977;DHT22;1498;51.500;7.440;2023-02-15T18:12:25;11.30;99.90
2977;DHT22;1498;51.500;7.440;2023-02-15T18:14:52;11.30;99.90
2977;DHT22;1498;51.500;7.440;2023-02-15T18:19:51;11.30;99.90
2977;DHT22;1498;51.500;7.440;2023-02-15T18:22:18;11.30;99.90
2977;DHT22;1498;51.500;7.440;2023-02-15T18:24:46;11.30;99.90
2977;DHT22;1498;51.500;7.440;2023-02-15T18:27:13;11.30;99.90
2977;DHT22;1498;51.500;7.440;2023-02-15T18:29:39;11.30;99.90
2977;DHT22;1498;51.500;7.440;2023-02-15T18:32:08;11.30;99.90
2977;DHT22;1498;51.500;7.440;2023-02-15T18:34:37;11.30;99.90
2977;DHT22;1498;51.500;7.440;2023-02-15T18:37:06;11.40;99.90
2977;DHT22;1498;51.500;7.440;2023-02-15T18:39:37;11.40;99.90
2977;DHT22;1498;51.500;7.440;2023-02-15T18:42:06;11.40;99.90
2977;DHT22;1498;51.500;7.440;2023-02-15T18:44:31;11.40;99.90
2977;DHT22;1498;51.500;7.440;2023-02-15T18:46:57;11.40;99.90
2977;DHT22;1498;51.500;7.440;2023-02-15T18:49:23;11.50;99.90
2977;DHT22;1498;51.500;7.440;2023-02-15T18:51:48;11.50;99.90
2977;DHT22;1498;51.500;7.440;2023-02-15T18:54:17;11.60;99.90
2977;DHT22;1498;51.500;7.440;2023-02-15T18:56:43;11.60;99.90
2977;DHT22;1498;51.500;7.440;2023-02-15T18:59:15;11.60;99.90
2977;DHT22;1498;51.500;7.440;2023-02-15T19:01:41;11.50;99.90
2977;DHT22;1498;51.500;7.440;2023-02-15T19:04:07;11.50;99.90
2977;DHT22;1498;51.500;7.440;2023-02-15T19:06:33;11.50;99.90
2977;DHT22;1498;51.500;7.440;2023-02-15T19:08:58;11.40;99.90
2977;DHT22;1498;51.500;7.440;2023-02-15T19:11:24;11.40;99.90
2977;DHT22;1498;51.500;7.440;2023-02-15T19:13:51;11.40;99.90
2977;DHT22;1498;51.500;7.440;2023-02-15T19:16:31;11.50;99.90
2977;DHT22;1498;51.500;7.440;2023-02-15T19:18:57;11.50;99.90
2977;DHT22;1498;51.500;7.440;2023-02-15T19:21:23;11.40;99.90
2977;DHT22;1498;51.500;7.440;2023-02-15T19:24:01;11.30;99.90
2977;DHT22;1498;51.500;7.440;2023-02-15T19:26:27;11.30;99.90
2977;DHT22;1498;51.500;7.440;2023-02-15T19:28:58;11.30;99.90
2977;DHT22;1498;51.500;7.440;2023-02-15T19:31:24;11.30;99.90
2977;DHT22;1498;51.500;7.440;2023-02-15T19:33:49;11.30;99.90
2977;DHT22;1498;51.500;7.440;2023-02-15T19:36:16;11.20;99.90
2977;DHT22;1498;51.500;7.440;2023-02-15T19:38:44;11.20;99.90
2977;DHT22;1498;51.500;7.440;2023-02-15T19:41:32;11.20;99.90
2977;DHT22;1498;51.500;7.440;2023-02-15T19:43:58;11.20;99.90
2977;DHT22;1498;51.500;7.440;2023-02-15T19:46:25;11.10;99.90
2977;DHT22;1498;51.500;7.440;2023-02-15T19:48:52;11.10;99.90
2977;DHT22;1498;51.500;7.440;2023-02-15T19:51:18;11.10;99.90
2977;DHT22;1498;51.500;7.440;2023-02-15T19:53:47;11.10;99.90
2977;DHT22;1498;51.500;7.440;2023-02-15T19:56:17;11.10;99.90
2977;DHT22;1498;51.500;7.440;2023-02-15T19:58:44;11.00;99.90
2977;DHT22;1498;51.500;7.440;2023-02-15T20:01:10;11.00;99.90
2977;DHT22;1498;51.500;7.440;2023-02-15T20:03:35;11.00;99.90
2977;DHT22;1498;51.500;7.440;2023-02-15T20:06:01;11.00;99.90
2977;DHT22;1498;51.500;7.440;2023-02-15T20:08:28;11.00;99.90
2977;DHT22;1498;51.500;7.440;2023-02-15T20:10:54;10.90;99.90
2977;DHT22;1498;51.500;7.440;2023-02-15T20:13:20;10.90;99.90
2977;DHT22;1498;51.500;7.440;2023-02-15T20:15:47;10.90;99.90
2977;DHT22;1498;51.500;7.440;2023-02-15T20:18:13;10.90;99.90
2977;DHT22;1498;51.500;7.440;2023-02-15T20:20:49;10.90;99.90
2977;DHT22;1498;51.500;7.440;2023-02-15T20:23:24;10.90;99.90
2977;DHT22;1498;51.500;7.440;2023-02-15T20:25:50;11.00;99.90
2977;DHT22;1498;51.500;7.440;2023-02-15T20:28:25;10.90;99.90
2977;DHT22;1498;51.500;7.440;2023-02-15T20:30:51;10.80;99.90
2977;DHT22;1498;51.500;7.440;2023-02-15T20:33:18;10.80;99.90
2977;DHT22;1498;51.500;7.440;2023-02-15T20:35:44;10.70;99.90
2977;DHT22;1498;51.500;7.440;2023-02-15T20:38:19;10.70;99.90
2977;DHT22;1498;51.500;7.440;2023-02-15T20:40:46;10.70;99.90
2977;DHT22;1498;51.500;7.440;2023-02-15T20:43:30;10.70;99.90
2977;DHT22;1498;51.500;7.440;2023-02-15T20:45:56;10.60;99.90
2977;DHT22;1498;51.500;7.440;2023-02-15T20:48:21;10.60;99.90
2977;DHT22;1498;51.500;7.440;2023-02-15T20:50:47;10.60;99.90
2977;DHT22;1498;51.500;7.440;2023-02-15T20:53:13;10.60;99.90
2977;DHT22;1498;51.500;7.440;2023-02-15T20:55:39;10.50;99.90
2977;DHT22;1498;51.500;7.440;2023-02-15T20:58:17;10.60;99.90
2977;DHT22;1498;51.500;7.440;2023-02-15T21:00:43;10.50;99.90